createdAt,value
2019-01-11T00:02:08.830Z,4.00
2019-01-11T00:05:14.014Z,4.00
2019-01-11T00:08:18.955Z,4.00
2019-01-11T00:11:23.877Z,4.00
2019-01-11T00:14:28.844Z,4.10
2019-01-11T00:17:34.053Z,4.00
2019-01-11T00:20:39.081Z,4.00
2019-01-11T00:23:44.106Z,4.10
2019-01-11T00:26:49.069Z,4.10
2019-01-11T00:29:54.203Z,4.10
2019-01-11T00:32:59.335Z,4.10
2019-01-11T00:36:05.677Z,4.10
2019-01-11T00:39:10.896Z,4.10
2019-01-11T00:42:15.806Z,4.10
2019-01-11T00:45:20.755Z,4.10
2019-01-11T00:48:25.923Z,4.00
2019-01-11T00:51:30.758Z,4.00
2019-01-11T00:54:35.701Z,4.10
2019-01-11T00:57:40.838Z,4.00
2019-01-11T01:00:46.013Z,4.10
2019-01-11T01:03:51.984Z,4.00
2019-01-11T01:06:56.913Z,4.00
2019-01-11T01:10:01.880Z,4.10
2019-01-11T01:13:07.153Z,4.10
2019-01-11T01:16:12.119Z,4.10
2019-01-11T01:19:20.074Z,4.10
2019-01-11T01:22:23.950Z,4.10
2019-01-11T01:25:29.295Z,4.10
2019-01-11T01:28:34.282Z,4.10
2019-01-11T01:31:39.284Z,4.10
2019-01-11T01:34:44.488Z,4.00
2019-01-11T01:37:49.180Z,4.00
2019-01-11T01:40:54.121Z,4.00
2019-01-11T01:43:59.641Z,4.00
2019-01-11T01:47:05.269Z,4.00
2019-01-11T01:50:10.755Z,3.90
2019-01-11T01:53:15.872Z,3.90
2019-01-11T01:56:20.941Z,3.80
2019-01-11T01:59:25.885Z,3.80
2019-01-11T02:02:31.006Z,3.80
2019-01-11T02:05:35.988Z,3.70
2019-01-11T02:08:40.825Z,3.60
2019-01-11T02:11:46.237Z,3.50
2019-01-11T02:14:51.154Z,3.40
2019-01-11T02:17:56.130Z,3.30
2019-01-11T02:21:01.073Z,3.30
2019-01-11T02:24:06.196Z,3.30
2019-01-11T02:27:11.177Z,3.30
2019-01-11T02:30:24.132Z,3.40
2019-01-11T02:33:29.128Z,3.30
2019-01-11T02:36:34.088Z,3.30
2019-01-11T02:39:39.174Z,3.30
2019-01-11T02:42:44.421Z,3.10
2019-01-11T02:45:49.529Z,3.10
2019-01-11T02:48:54.448Z,3.10
2019-01-11T02:51:59.309Z,3.20
2019-01-11T02:55:04.812Z,3.20
2019-01-11T02:58:09.813Z,3.20
2019-01-11T03:01:14.711Z,3.10
2019-01-11T03:04:20.006Z,3.10
2019-01-11T03:07:25.146Z,3.10
2019-01-11T03:10:30.053Z,3.10
2019-01-11T03:13:34.925Z,3.10
2019-01-11T03:16:39.920Z,3.20
2019-01-11T03:19:47.926Z,3.20
2019-01-11T03:22:51.656Z,3.20
2019-01-11T03:25:56.627Z,3.20
2019-01-11T03:29:01.535Z,3.10
2019-01-11T03:32:06.394Z,3.10
2019-01-11T03:35:22.100Z,3.10
2019-01-11T03:38:27.217Z,3.00
2019-01-11T03:41:32.331Z,2.90
2019-01-11T03:44:37.321Z,2.90
2019-01-11T03:47:42.445Z,2.90
2019-01-11T03:50:47.516Z,2.90
2019-01-11T03:53:52.407Z,2.90
2019-01-11T03:56:57.604Z,2.80
2019-01-11T04:00:02.575Z,2.80
2019-01-11T04:03:07.538Z,2.80
2019-01-11T04:06:12.637Z,2.70
2019-01-11T04:09:17.657Z,2.70
2019-01-11T04:12:22.956Z,2.70
2019-01-11T04:15:27.893Z,2.60
2019-01-11T04:18:33.821Z,2.60
2019-01-11T04:21:39.703Z,2.60
2019-01-11T04:25:02.364Z,2.70
2019-01-11T04:28:07.270Z,2.70
2019-01-11T04:31:12.347Z,2.70
2019-01-11T04:34:17.489Z,2.70
2019-01-11T04:37:22.421Z,2.70
2019-01-11T04:40:33.974Z,2.60
2019-01-11T04:43:34.125Z,2.60
2019-01-11T04:46:39.106Z,2.50
2019-01-11T04:49:44.416Z,2.40
2019-01-11T04:52:49.492Z,2.40
2019-01-11T04:55:54.629Z,2.40
2019-01-11T04:58:59.511Z,2.30
2019-01-11T05:02:04.777Z,2.30
2019-01-11T05:05:09.908Z,2.30
2019-01-11T05:08:14.883Z,2.30
2019-01-11T05:11:19.790Z,2.30
2019-01-11T05:14:24.752Z,2.30
2019-01-11T05:17:29.657Z,2.30
2019-01-11T05:20:34.709Z,2.30
2019-01-11T05:23:40.229Z,2.30
2019-01-11T05:26:45.418Z,2.20
2019-01-11T05:29:50.253Z,2.20
2019-01-11T05:32:55.215Z,2.20
2019-01-11T05:36:00.080Z,2.20
2019-01-11T05:39:07.829Z,2.20
2019-01-11T05:42:12.738Z,2.20
2019-01-11T05:45:18.179Z,2.20
2019-01-11T05:48:23.210Z,2.20
2019-01-11T05:51:28.103Z,2.20
2019-01-11T05:54:32.995Z,2.10
2019-01-11T05:57:39.653Z,2.10
2019-01-11T06:00:44.560Z,2.10
2019-01-11T06:03:49.669Z,2.10
2019-01-11T06:07:10.002Z,2.10
2019-01-11T06:10:16.269Z,2.10
2019-01-11T06:13:21.440Z,2.10
2019-01-11T06:16:26.386Z,2.00
2019-01-11T06:19:31.447Z,2.00
2019-01-11T06:22:36.569Z,1.90
2019-01-11T06:25:41.724Z,1.90
2019-01-11T06:28:46.799Z,1.80
2019-01-11T06:31:52.077Z,1.80
2019-01-11T06:34:57.021Z,1.80
2019-01-11T06:38:01.986Z,1.80
2019-01-11T06:41:07.195Z,1.80
2019-01-11T06:44:12.549Z,1.80
2019-01-11T06:47:18.540Z,1.80
2019-01-11T06:50:23.670Z,1.70
2019-01-11T06:53:28.634Z,1.70
2019-01-11T06:56:33.805Z,1.70
2019-01-11T06:59:39.059Z,1.70
2019-01-11T07:02:44.141Z,1.80
2019-01-11T07:05:49.345Z,1.70
2019-01-11T07:08:54.418Z,1.70
2019-01-11T07:11:59.641Z,1.70
2019-01-11T07:15:05.049Z,1.70
2019-01-11T07:18:10.125Z,1.70
2019-01-11T07:21:15.037Z,1.70
2019-01-11T07:24:19.936Z,1.70
2019-01-11T07:27:25.778Z,1.70
2019-01-11T07:31:05.327Z,1.70
2019-01-11T07:34:10.181Z,1.70
2019-01-11T07:37:15.184Z,1.70
2019-01-11T07:40:20.337Z,1.70
2019-01-11T07:43:25.406Z,1.70
2019-01-11T07:46:30.329Z,1.80
2019-01-11T07:49:35.621Z,1.80
2019-01-11T07:52:40.796Z,1.70
2019-01-11T07:55:45.779Z,1.70
2019-01-11T07:58:50.686Z,1.70
2019-01-11T08:01:55.734Z,1.80
2019-01-11T08:05:01.249Z,1.70
2019-01-11T08:08:06.168Z,1.60
2019-01-11T08:11:11.018Z,1.60
2019-01-11T08:14:15.913Z,1.50
2019-01-11T08:17:22.185Z,1.50
2019-01-11T08:20:27.104Z,1.50
2019-01-11T08:23:32.016Z,1.40
2019-01-11T08:26:37.085Z,1.50
2019-01-11T08:29:42.238Z,1.40
2019-01-11T08:32:47.342Z,1.40
2019-01-11T08:35:52.452Z,1.40
2019-01-11T08:38:57.464Z,1.20
2019-01-11T08:42:02.464Z,1.30
2019-01-11T08:45:11.830Z,1.50
2019-01-11T08:48:16.818Z,1.50
2019-01-11T08:51:22.102Z,1.70
2019-01-11T08:54:27.052Z,1.70
2019-01-11T08:57:32.061Z,1.80
2019-01-11T09:00:37.022Z,1.80
2019-01-11T09:03:42.147Z,1.80
2019-01-11T09:06:47.361Z,1.80
2019-01-11T09:09:52.624Z,1.90
2019-01-11T09:12:57.593Z,1.90
2019-01-11T09:16:04.301Z,2.00
2019-01-11T09:19:10.286Z,2.10
2019-01-11T09:22:15.290Z,2.30
2019-01-11T09:25:20.292Z,2.30
2019-01-11T09:28:25.438Z,2.30
2019-01-11T09:31:30.598Z,2.40
2019-01-11T09:34:35.454Z,2.30
2019-01-11T09:37:40.539Z,2.30
2019-01-11T09:40:47.575Z,2.30
2019-01-11T09:43:52.745Z,2.40
2019-01-11T09:46:57.722Z,2.30
2019-01-11T09:50:02.692Z,2.40
2019-01-11T09:53:07.879Z,2.40
2019-01-11T09:56:12.941Z,2.40
2019-01-11T09:59:18.720Z,2.50
2019-01-11T10:02:51.777Z,2.50
2019-01-11T10:05:56.818Z,2.50
2019-01-11T10:09:03.970Z,2.60
2019-01-11T10:12:08.955Z,2.70
2019-01-11T10:15:14.771Z,2.70
2019-01-11T10:18:19.836Z,2.80
2019-01-11T10:21:24.968Z,2.60
2019-01-11T10:24:29.984Z,2.60
2019-01-11T10:27:35.252Z,2.70
2019-01-11T10:30:40.159Z,2.90
2019-01-11T10:33:45.178Z,3.00
2019-01-11T10:36:50.236Z,3.10
2019-01-11T10:39:55.361Z,3.20
2019-01-11T10:43:00.973Z,3.20
2019-01-11T10:46:17.763Z,3.20
2019-01-11T10:49:22.719Z,3.40
2019-01-11T10:52:27.649Z,3.50
2019-01-11T10:55:32.591Z,3.50
2019-01-11T10:58:37.625Z,3.60
2019-01-11T11:01:42.576Z,3.70
2019-01-11T11:04:47.532Z,3.70
2019-01-11T11:07:52.671Z,3.90
2019-01-11T11:10:57.669Z,4.10
2019-01-11T11:14:02.668Z,4.30
2019-01-11T11:17:08.025Z,4.50
2019-01-11T11:20:14.685Z,4.90
2019-01-11T11:23:19.901Z,7.50
2019-01-11T11:26:24.847Z,12.20
2019-01-11T11:29:29.932Z,16.00
2019-01-11T11:32:48.374Z,17.80
2019-01-11T11:35:53.258Z,15.00
2019-01-11T11:38:58.470Z,13.70
2019-01-11T11:42:03.602Z,13.20
2019-01-11T11:45:08.960Z,16.50
2019-01-11T11:48:13.850Z,20.90
2019-01-11T11:51:18.818Z,24.70
2019-01-11T11:54:23.897Z,26.60
2019-01-11T11:57:29.048Z,27.10
2019-01-11T12:00:34.104Z,28.50
2019-01-11T12:03:39.036Z,30.10
2019-01-11T12:06:44.236Z,31.30
2019-01-11T12:09:49.351Z,32.40
2019-01-11T12:12:54.419Z,32.20
2019-01-11T12:15:59.441Z,32.80
2019-01-11T12:19:04.537Z,33.00
2019-01-11T12:22:09.384Z,33.00
2019-01-11T12:25:14.312Z,32.00
2019-01-11T12:28:38.168Z,31.70
2019-01-11T12:31:45.243Z,31.50
2019-01-11T12:34:50.412Z,32.20
2019-01-11T12:37:55.363Z,32.70
2019-01-11T12:41:00.513Z,32.70
2019-01-11T12:44:05.692Z,32.20
2019-01-11T12:47:10.533Z,31.90
2019-01-11T12:50:21.234Z,31.90
2019-01-11T12:53:26.092Z,31.90
2019-01-11T12:56:31.206Z,30.70
2019-01-11T12:59:36.199Z,29.10
2019-01-11T13:02:41.428Z,28.20
2019-01-11T13:05:46.619Z,28.50
2019-01-11T13:08:51.596Z,28.10
2019-01-11T13:11:56.709Z,28.70
2019-01-11T13:15:01.541Z,28.50
2019-01-11T13:18:06.406Z,27.80
2019-01-11T13:21:11.210Z,26.70
2019-01-11T13:24:16.257Z,26.80
2019-01-11T13:27:21.189Z,26.70
2019-01-11T13:30:26.157Z,26.90
2019-01-11T13:33:30.906Z,27.40
2019-01-11T13:36:35.719Z,27.80
2019-01-11T13:39:40.571Z,27.40
2019-01-11T13:42:46.049Z,27.00
2019-01-11T13:45:51.121Z,26.00
2019-01-11T13:48:55.859Z,25.10
2019-01-11T13:52:06.991Z,24.40
2019-01-11T13:55:06.992Z,24.60
2019-01-11T13:58:11.732Z,24.00
2019-01-11T14:01:16.465Z,23.30
2019-01-11T14:04:21.213Z,22.80
2019-01-11T14:07:25.945Z,22.60
2019-01-11T14:10:31.069Z,22.00
2019-01-11T14:13:36.621Z,21.60
2019-01-11T14:16:41.319Z,21.10
2019-01-11T14:19:46.075Z,21.00
2019-01-11T14:22:50.750Z,20.30
2019-01-11T14:25:55.945Z,19.40
2019-01-11T14:29:01.355Z,18.80
2019-01-11T14:32:06.225Z,17.90
2019-01-11T14:35:11.423Z,16.30
2019-01-11T14:38:16.427Z,14.60
2019-01-11T14:41:21.617Z,13.20
2019-01-11T14:44:26.769Z,11.80
2019-01-11T14:47:31.819Z,10.50
2019-01-11T14:50:37.171Z,9.60
2019-01-11T14:53:42.200Z,8.90
2019-01-11T14:56:47.117Z,8.20
2019-01-11T14:59:52.086Z,7.70
2019-01-11T15:02:57.067Z,7.30
2019-01-11T15:06:01.856Z,6.80
2019-01-11T15:09:09.049Z,6.50
2019-01-11T15:12:13.920Z,6.40
2019-01-11T15:15:19.374Z,6.00
2019-01-11T15:18:24.630Z,5.80
2019-01-11T15:21:29.630Z,5.60
2019-01-11T15:24:34.719Z,5.40
2019-01-11T15:27:39.786Z,5.20
2019-01-11T15:30:45.531Z,5.10
2019-01-11T15:33:50.718Z,5.00
2019-01-11T15:36:55.703Z,4.90
2019-01-11T15:40:00.560Z,4.70
2019-01-11T15:43:05.736Z,4.70
2019-01-11T15:46:15.080Z,4.60
2019-01-11T15:49:17.012Z,4.50
2019-01-11T15:52:22.081Z,4.40
2019-01-11T15:55:27.052Z,4.40
2019-01-11T15:58:32.012Z,4.30
2019-01-11T16:01:36.736Z,4.20
2019-01-11T16:04:42.002Z,4.10
2019-01-11T16:07:48.375Z,4.00
2019-01-11T16:11:20.656Z,3.90
2019-01-11T16:14:34.808Z,3.90
2019-01-11T16:17:39.940Z,3.80
2019-01-11T16:20:44.853Z,3.80
2019-01-11T16:23:49.792Z,3.60
2019-01-11T16:26:55.213Z,3.60
2019-01-11T16:30:00.343Z,3.60
2019-01-11T16:33:05.542Z,3.50
2019-01-11T16:36:10.577Z,3.50
2019-01-11T16:39:15.731Z,3.50
2019-01-11T16:42:20.741Z,3.50
2019-01-11T16:45:25.832Z,3.40
2019-01-11T16:48:31.049Z,3.40
2019-01-11T16:51:36.276Z,3.40
2019-01-11T16:54:41.156Z,3.40
2019-01-11T16:57:46.139Z,3.30
2019-01-11T17:00:51.014Z,3.30
2019-01-11T17:03:55.937Z,3.30
2019-01-11T17:07:00.898Z,3.30
2019-01-11T17:10:06.448Z,3.30
2019-01-11T17:13:11.692Z,3.20
2019-01-11T17:16:16.985Z,3.20
2019-01-11T17:19:21.933Z,3.20
2019-01-11T17:22:26.882Z,3.20
2019-01-11T17:25:34.669Z,3.20
2019-01-11T17:28:45.074Z,3.20
2019-01-11T17:31:50.292Z,3.20
2019-01-11T17:34:55.700Z,3.10
2019-01-11T17:38:00.888Z,3.00
2019-01-11T17:41:06.301Z,3.00
2019-01-11T17:44:12.280Z,3.00
2019-01-11T17:47:17.166Z,3.00
2019-01-11T17:50:21.909Z,2.90
2019-01-11T17:53:27.352Z,2.90
2019-01-11T17:56:33.500Z,2.80
2019-01-11T17:59:38.309Z,2.80
2019-01-11T18:02:43.045Z,2.70
2019-01-11T18:05:47.961Z,2.70
2019-01-11T18:08:52.733Z,2.60
2019-01-11T18:12:00.088Z,2.60
2019-01-11T18:15:06.281Z,2.50
2019-01-11T18:18:11.338Z,2.60
2019-01-11T18:21:19.021Z,2.50
2019-01-11T18:24:24.086Z,2.50
2019-01-11T18:27:29.149Z,2.40
2019-01-11T18:30:33.935Z,2.40
2019-01-11T18:33:38.726Z,2.30
2019-01-11T18:36:43.702Z,2.30
2019-01-11T18:39:48.538Z,2.30
2019-01-11T18:42:53.390Z,2.30
2019-01-11T18:45:58.177Z,2.40
2019-01-11T18:49:04.288Z,2.40
2019-01-11T18:52:10.629Z,2.30
2019-01-11T18:55:15.486Z,2.30
2019-01-11T18:58:20.713Z,2.30
2019-01-11T19:01:25.719Z,2.30
2019-01-11T19:04:31.133Z,2.40
2019-01-11T19:07:36.422Z,2.30
2019-01-11T19:10:41.479Z,2.30
2019-01-11T19:13:46.625Z,2.30
2019-01-11T19:16:51.610Z,2.30
2019-01-11T19:19:56.409Z,2.40
2019-01-11T19:23:02.382Z,2.40
2019-01-11T19:26:07.069Z,2.40
2019-01-11T19:29:12.212Z,2.40
2019-01-11T19:32:17.190Z,2.40
2019-01-11T19:35:22.472Z,2.40
2019-01-11T19:38:27.487Z,2.40
2019-01-11T19:41:32.452Z,2.40
2019-01-11T19:44:37.375Z,2.50
2019-01-11T19:47:42.486Z,2.50
2019-01-11T19:50:47.435Z,2.50
2019-01-11T19:53:52.594Z,2.50
2019-01-11T19:57:02.492Z,2.40
2019-01-11T20:00:11.696Z,2.40
2019-01-11T20:03:16.938Z,2.40
2019-01-11T20:06:22.182Z,2.40
2019-01-11T20:09:27.149Z,2.50
2019-01-11T20:12:32.444Z,2.50
2019-01-11T20:15:37.936Z,2.60
2019-01-11T20:18:43.361Z,2.60
2019-01-11T20:21:48.521Z,2.60
2019-01-11T20:24:55.869Z,2.60
2019-01-11T20:28:01.514Z,2.60
2019-01-11T20:31:06.608Z,2.60
2019-01-11T20:34:11.596Z,2.60
2019-01-11T20:37:25.605Z,2.50
2019-01-11T20:40:30.920Z,2.50
2019-01-11T20:43:37.507Z,2.50
2019-01-11T20:46:42.789Z,2.50
2019-01-11T20:49:48.131Z,2.50
2019-01-11T20:52:53.249Z,2.50
2019-01-11T20:55:58.260Z,2.50
2019-01-11T20:59:03.655Z,2.50
2019-01-11T21:02:08.794Z,2.40
2019-01-11T21:05:14.405Z,2.50
2019-01-11T21:08:19.332Z,2.60
2019-01-11T21:11:24.428Z,2.70
2019-01-11T21:14:30.447Z,2.80
2019-01-11T21:17:35.646Z,2.90
2019-01-11T21:20:40.597Z,2.90
2019-01-11T21:23:48.889Z,3.00
2019-01-11T21:26:52.528Z,2.90
2019-01-11T21:29:57.745Z,2.90
2019-01-11T21:33:02.816Z,2.90
2019-01-11T21:36:07.906Z,2.90
2019-01-11T21:39:13.125Z,2.90
2019-01-11T21:42:19.192Z,2.90
2019-01-11T21:45:24.869Z,2.90
2019-01-11T21:48:30.090Z,2.90
2019-01-11T21:51:35.281Z,2.90
2019-01-11T21:54:40.789Z,2.90
2019-01-11T21:57:49.439Z,2.90
2019-01-11T22:00:55.625Z,2.90
2019-01-11T22:04:01.082Z,2.90
2019-01-11T22:07:06.413Z,2.80
2019-01-11T22:10:13.806Z,2.80
2019-01-11T22:13:18.971Z,2.70
2019-01-11T22:16:24.268Z,2.70
2019-01-11T22:19:29.577Z,2.70
2019-01-11T22:22:34.745Z,2.70
2019-01-11T22:25:41.008Z,2.70
2019-01-11T22:28:46.583Z,2.60
2019-01-11T22:31:51.809Z,2.50
2019-01-11T22:34:56.866Z,2.50
2019-01-11T22:38:02.172Z,2.50
2019-01-11T22:41:07.413Z,2.40
2019-01-11T22:44:12.613Z,2.40
2019-01-11T22:47:17.886Z,2.40
2019-01-11T22:50:22.722Z,2.40
2019-01-11T22:53:27.717Z,2.40
2019-01-11T22:56:32.767Z,2.30
2019-01-11T22:59:38.076Z,2.50
2019-01-11T23:02:48.083Z,2.40
2019-01-11T23:05:55.965Z,2.40
2019-01-11T23:09:00.736Z,2.40
2019-01-11T23:12:24.885Z,2.40
2019-01-11T23:15:36.687Z,2.40
2019-01-11T23:18:41.678Z,2.40
2019-01-11T23:21:46.812Z,2.30
2019-01-11T23:24:51.672Z,2.30
2019-01-11T23:27:56.915Z,2.20
2019-01-11T23:31:02.218Z,2.20
2019-01-11T23:34:07.116Z,2.20
2019-01-11T23:37:12.630Z,2.20
2019-01-11T23:40:18.018Z,2.20
2019-01-11T23:43:23.150Z,2.30
2019-01-11T23:46:28.208Z,2.30
2019-01-11T23:49:33.291Z,2.40
2019-01-11T23:52:38.360Z,2.30
2019-01-11T23:55:43.541Z,2.30
2019-01-11T23:58:48.429Z,2.40
